sensor_id;sensor_type;location;lat;lon;timestamp;P1;P4;P2;P0;N10;N4;N25;N1;N05;TS
60227;SPS30;46091;46.512;6.626;2023-01-10T07:11:26;3.50;;2.50;;;;;;;
60227;SPS30;46091;46.512;6.626;2023-01-10T07:13:29;2.00;;1.00;;;;;;;
60227;SPS30;46091;46.512;6.626;2023-01-10T07:15:32;3.00;;2.00;;;;;;;
60227;SPS30;46091;46.512;6.626;2023-01-10T07:17:35;4.00;;3.00;;;;;;;
60227;SPS30;46091;46.512;6.626;2023-01-10T07:19:39;3.00;;2.00;;;;;;;
60227;SPS30;46091;46.512;6.626;2023-01-10T07:21:43;1.75;;0.75;;;;;;;
60227;SPS30;46091;46.512;6.626;2023-01-10T07:23:47;3.00;;2.00;;;;;;;
60227;SPS30;46091;46.512;6.626;2023-01-10T07:25:51;3.00;;2.00;;;;;;;
60227;SPS30;46091;46.512;6.626;2023-01-10T07:27:56;3.00;;2.00;;;;;;;
60227;SPS30;46091;46.512;6.626;2023-01-10T07:29:59;3.00;;2.00;;;;;;;
60227;SPS30;46091;46.512;6.626;2023-01-10T07:32:02;2.00;;1.00;;;;;;;
60227;SPS30;46091;46.512;6.626;2023-01-10T07:34:07;8.75;;7.75;;;;;;;
60227;SPS30;46091;46.512;6.626;2023-01-10T07:36:10;3.25;;2.25;;;;;;;
60227;SPS30;46091;46.512;6.626;2023-01-10T07:38:14;4.67;;3.67;;;;;;;
60227;SPS30;46091;46.512;6.626;2023-01-10T07:40:17;5.00;;4.00;;;;;;;
60227;SPS30;46091;46.512;6.626;2023-01-10T07:42:20;4.00;;3.00;;;;;;;
60227;SPS30;46091;46.512;6.626;2023-01-10T07:44:25;6.00;;5.00;;;;;;;
60227;SPS30;46091;46.512;6.626;2023-01-10T07:46:28;4.75;;3.75;;;;;;;
60227;SPS30;46091;46.512;6.626;2023-01-10T07:48:31;4.00;;3.00;;;;;;;
60227;SPS30;46091;46.512;6.626;2023-01-10T07:50:35;2.00;;1.00;;;;;;;
60227;SPS30;46091;46.512;6.626;2023-01-10T07:52:39;3.75;;2.75;;;;;;;
60227;SPS30;46091;46.512;6.626;2023-01-10T07:54:42;5.00;;4.00;;;;;;;
60227;SPS30;46091;46.512;6.626;2023-01-10T07:56:45;8.75;;7.75;;;;;;;
60227;SPS30;46091;46.512;6.626;2023-01-10T07:58:48;2.00;;1.00;;;;;;;
60227;SPS30;46091;46.512;6.626;2023-01-10T08:00:55;4.50;;3.50;;;;;;;
60227;SPS30;46091;46.512;6.626;2023-01-10T08:02:58;2.00;;1.00;;;;;;;
60227;SPS30;46091;46.512;6.626;2023-01-10T08:05:02;2.75;;1.75;;;;;;;
60227;SPS30;46091;46.512;6.626;2023-01-10T08:07:05;7.75;;6.75;;;;;;;
60227;SPS30;46091;46.512;6.626;2023-01-10T08:09:08;3.50;;2.50;;;;;;;
60227;SPS30;46091;46.512;6.626;2023-01-10T08:11:12;2.00;;1.00;;;;;;;
60227;SPS30;46091;46.512;6.626;2023-01-10T08:13:16;4.50;;3.50;;;;;;;
60227;SPS30;46091;46.512;6.626;2023-01-10T08:15:20;5.00;;4.00;;;;;;;
60227;SPS30;46091;46.512;6.626;2023-01-10T08:17:24;2.67;;1.67;;;;;;;
60227;SPS30;46091;46.512;6.626;2023-01-10T08:19:28;3.00;;2.00;;;;;;;
60227;SPS30;46091;46.512;6.626;2023-01-10T08:21:31;3.75;;2.75;;;;;;;
60227;SPS30;46091;46.512;6.626;2023-01-10T08:23:34;3.00;;2.00;;;;;;;
60227;SPS30;46091;46.512;6.626;2023-01-10T08:25:37;3.00;;2.00;;;;;;;
60227;SPS30;46091;46.512;6.626;2023-01-10T08:27:40;3.25;;2.25;;;;;;;
60227;SPS30;46091;46.512;6.626;2023-01-10T08:29:44;3.00;;2.00;;;;;;;
60227;SPS30;46091;46.512;6.626;2023-01-10T08:31:47;3.00;;2.00;;;;;;;
60227;SPS30;46091;46.512;6.626;2023-01-10T08:33:51;2.75;;1.75;;;;;;;
60227;SPS30;46091;46.512;6.626;2023-01-10T08:35:55;3.00;;2.00;;;;;;;
60227;SPS30;46091;46.512;6.626;2023-01-10T08:37:58;3.50;;2.50;;;;;;;
60227;SPS30;46091;46.512;6.626;2023-01-10T08:40:02;3.25;;2.25;;;;;;;
60227;SPS30;46091;46.512;6.626;2023-01-10T08:42:06;2.50;;1.50;;;;;;;
60227;SPS30;46091;46.512;6.626;2023-01-10T08:44:10;5.00;;4.00;;;;;;;
60227;SPS30;46091;46.512;6.626;2023-01-10T08:46:15;2.00;;1.00;;;;;;;
60227;SPS30;46091;46.512;6.626;2023-01-10T08:48:19;3.00;;2.00;;;;;;;
60227;SPS30;46091;46.512;6.626;2023-01-10T08:50:23;3.00;;2.00;;;;;;;
60227;SPS30;46091;46.512;6.626;2023-01-10T08:52:27;4.00;;3.00;;;;;;;
60227;SPS30;46091;46.512;6.626;2023-01-10T08:54:31;4.00;;3.00;;;;;;;
60227;SPS30;46091;46.512;6.626;2023-01-10T08:56:34;4.75;;3.75;;;;;;;
60227;SPS30;46091;46.512;6.626;2023-01-10T08:58:40;4.00;;3.00;;;;;;;
60227;SPS30;46091;46.512;6.626;2023-01-10T09:00:44;5.25;;4.25;;;;;;;
60227;SPS30;46091;46.512;6.626;2023-01-10T09:02:47;5.00;;4.00;;;;;;;
60227;SPS30;46091;46.512;6.626;2023-01-10T09:04:50;2.75;;1.75;;;;;;;
60227;SPS30;46091;46.512;6.626;2023-01-10T09:06:55;4.75;;3.75;;;;;;;
60227;SPS30;46091;46.512;6.626;2023-01-10T09:08:58;3.25;;2.25;;;;;;;
60227;SPS30;46091;46.512;6.626;2023-01-10T09:11:01;2.75;;1.75;;;;;;;
60227;SPS30;46091;46.512;6.626;2023-01-10T09:13:05;2.67;;1.67;;;;;;;
60227;SPS30;46091;46.512;6.626;2023-01-10T09:15:08;4.00;;3.00;;;;;;;
60227;SPS30;46091;46.512;6.626;2023-01-10T09:17:13;4.00;;3.00;;;;;;;
60227;SPS30;46091;46.512;6.626;2023-01-10T09:19:16;3.00;;2.00;;;;;;;
60227;SPS30;46091;46.512;6.626;2023-01-10T09:21:19;3.00;;2.00;;;;;;;
60227;SPS30;46091;46.512;6.626;2023-01-10T09:23:24;3.00;;2.00;;;;;;;
60227;SPS30;46091;46.512;6.626;2023-01-10T09:25:27;3.00;;2.00;;;;;;;
60227;SPS30;46091;46.512;6.626;2023-01-10T09:27:32;2.25;;1.25;;;;;;;
60227;SPS30;46091;46.512;6.626;2023-01-10T09:29:35;4.75;;3.75;;;;;;;
60227;SPS30;46091;46.512;6.626;2023-01-10T09:31:38;4.00;;3.00;;;;;;;
60227;SPS30;46091;46.512;6.626;2023-01-10T09:33:42;4.00;;3.00;;;;;;;
60227;SPS30;46091;46.512;6.626;2023-01-10T09:35:48;2.00;;1.00;;;;;;;
60227;SPS30;46091;46.512;6.626;2023-01-10T09:37:52;3.00;;2.00;;;;;;;
60227;SPS30;46091;46.512;6.626;2023-01-10T09:39:57;14.75;;13.75;;;;;;;
60227;SPS30;46091;46.512;6.626;2023-01-10T09:42:06;3.00;;2.00;;;;;;;
60227;SPS30;46091;46.512;6.626;2023-01-10T09:44:24;4.00;;3.00;;;;;;;
60227;SPS30;46091;46.512;6.626;2023-01-10T09:46:41;3.00;;2.00;;;;;;;
60227;SPS30;46091;46.512;6.626;2023-01-10T09:48:53;4.00;;3.00;;;;;;;
60227;SPS30;46091;46.512;6.626;2023-01-10T09:51:04;6.75;;5.75;;;;;;;
60227;SPS30;46091;46.512;6.626;2023-01-10T09:53:19;5.00;;4.00;;;;;;;
60227;SPS30;46091;46.512;6.626;2023-01-10T09:55:27;2.25;;1.25;;;;;;;
60227;SPS30;46091;46.512;6.626;2023-01-10T09:57:33;3.25;;2.25;;;;;;;
60227;SPS30;46091;46.512;6.626;2023-01-10T09:59:37;4.00;;3.00;;;;;;;
60227;SPS30;46091;46.512;6.626;2023-01-10T10:01:43;1.75;;0.75;;;;;;;
60227;SPS30;46091;46.512;6.626;2023-01-10T10:03:50;3.00;;2.00;;;;;;;
60227;SPS30;46091;46.512;6.626;2023-01-10T10:06:00;2.00;;1.00;;;;;;;
60227;SPS30;46091;46.512;6.626;2023-01-10T10:08:16;3.50;;2.50;;;;;;;
60227;SPS30;46091;46.512;6.626;2023-01-10T10:10:21;4.50;;3.50;;;;;;;
60227;SPS30;46091;46.512;6.626;2023-01-10T10:12:29;3.00;;2.00;;;;;;;
60227;SPS30;46091;46.512;6.626;2023-01-10T10:14:44;3.00;;2.00;;;;;;;
60227;SPS30;46091;46.512;6.626;2023-01-10T10:17:01;2.50;;1.50;;;;;;;
60227;SPS30;46091;46.512;6.626;2023-01-10T10:19:17;2.00;;1.00;;;;;;;
60227;SPS30;46091;46.512;6.626;2023-01-10T10:21:27;3.00;;2.00;;;;;;;
60227;SPS30;46091;46.512;6.626;2023-01-10T10:23:41;3.75;;2.75;;;;;;;
60227;SPS30;46091;46.512;6.626;2023-01-10T10:25:54;2.00;;1.00;;;;;;;
60227;SPS30;46091;46.512;6.626;2023-01-10T10:28:11;6.00;;5.00;;;;;;;
60227;SPS30;46091;46.512;6.626;2023-01-10T10:30:36;2.75;;1.75;;;;;;;
60227;SPS30;46091;46.512;6.626;2023-01-10T10:32:55;3.00;;2.00;;;;;;;
60227;SPS30;46091;46.512;6.626;2023-01-10T10:35:11;3.00;;2.00;;;;;;;
60227;SPS30;46091;46.512;6.626;2023-01-10T10:37:18;2.00;;1.00;;;;;;;
60227;SPS30;46091;46.512;6.626;2023-01-10T10:39:27;4.25;;3.25;;;;;;;
60227;SPS30;46091;46.512;6.626;2023-01-10T10:41:36;2.33;;1.33;;;;;;;
60227;SPS30;46091;46.512;6.626;2023-01-10T10:43:44;2.25;;1.25;;;;;;;
60227;SPS30;46091;46.512;6.626;2023-01-10T10:45:50;2.00;;1.00;;;;;;;
60227;SPS30;46091;46.512;6.626;2023-01-10T10:47:57;4.25;;3.25;;;;;;;
60227;SPS30;46091;46.512;6.626;2023-01-10T10:50:07;2.50;;1.50;;;;;;;
60227;SPS30;46091;46.512;6.626;2023-01-10T10:52:23;2.75;;1.75;;;;;;;
60227;SPS30;46091;46.512;6.626;2023-01-10T10:54:34;3.00;;2.00;;;;;;;
60227;SPS30;46091;46.512;6.626;2023-01-10T10:56:38;6.25;;5.25;;;;;;;
60227;SPS30;46091;46.512;6.626;2023-01-10T10:58:44;2.00;;1.00;;;;;;;
60227;SPS30;46091;46.512;6.626;2023-01-10T11:00:53;2.50;;1.50;;;;;;;
60227;SPS30;46091;46.512;6.626;2023-01-10T11:02:57;5.00;;4.00;;;;;;;
60227;SPS30;46091;46.512;6.626;2023-01-10T11:05:12;4.00;;3.00;;;;;;;
60227;SPS30;46091;46.512;6.626;2023-01-10T11:07:19;3.00;;2.00;;;;;;;
60227;SPS30;46091;46.512;6.626;2023-01-10T11:09:24;2.00;;1.00;;;;;;;
60227;SPS30;46091;46.512;6.626;2023-01-10T11:11:32;6.75;;5.75;;;;;;;
60227;SPS30;46091;46.512;6.626;2023-01-10T11:13:39;4.00;;3.00;;;;;;;
60227;SPS30;46091;46.512;6.626;2023-01-10T11:15:48;2.50;;1.50;;;;;;;
60227;SPS30;46091;46.512;6.626;2023-01-10T11:18:01;2.50;;1.50;;;;;;;
60227;SPS30;46091;46.512;6.626;2023-01-10T11:20:12;3.00;;2.00;;;;;;;
60227;SPS30;46091;46.512;6.626;2023-01-10T11:22:17;3.00;;2.00;;;;;;;
60227;SPS30;46091;46.512;6.626;2023-01-10T11:24:27;3.75;;2.75;;;;;;;
60227;SPS30;46091;46.512;6.626;2023-01-10T11:26:34;4.00;;3.00;;;;;;;
60227;SPS30;46091;46.512;6.626;2023-01-10T11:28:40;4.00;;3.00;;;;;;;
60227;SPS30;46091;46.512;6.626;2023-01-10T11:30:47;3.00;;2.00;;;;;;;
60227;SPS30;46091;46.512;6.626;2023-01-10T11:32:53;2.00;;1.00;;;;;;;
60227;SPS30;46091;46.512;6.626;2023-01-10T11:34:59;3.00;;2.00;;;;;;;
60227;SPS30;46091;46.512;6.626;2023-01-10T11:37:04;5.75;;4.75;;;;;;;
60227;SPS30;46091;46.512;6.626;2023-01-10T11:39:20;3.00;;2.00;;;;;;;
60227;SPS30;46091;46.512;6.626;2023-01-10T11:41:24;4.00;;3.00;;;;;;;
60227;SPS30;46091;46.512;6.626;2023-01-10T11:43:32;4.75;;3.75;;;;;;;
60227;SPS30;46091;46.512;6.626;2023-01-10T11:45:36;5.00;;4.00;;;;;;;
60227;SPS30;46091;46.512;6.626;2023-01-10T11:47:42;2.00;;1.00;;;;;;;
60227;SPS30;46091;46.512;6.626;2023-01-10T11:49:49;3.00;;2.00;;;;;;;
60227;SPS30;46091;46.512;6.626;2023-01-10T11:51:54;3.00;;2.00;;;;;;;
60227;SPS30;46091;46.512;6.626;2023-01-10T11:54:01;4.50;;3.50;;;;;;;
60227;SPS30;46091;46.512;6.626;2023-01-10T11:56:06;3.00;;2.00;;;;;;;
60227;SPS30;46091;46.512;6.626;2023-01-10T11:58:13;4.00;;3.00;;;;;;;
60227;SPS30;46091;46.512;6.626;2023-01-10T12:00:16;3.75;;2.75;;;;;;;
60227;SPS30;46091;46.512;6.626;2023-01-10T12:02:21;4.75;;3.75;;;;;;;
60227;SPS30;46091;46.512;6.626;2023-01-10T12:04:29;3.00;;2.00;;;;;;;
60227;SPS30;46091;46.512;6.626;2023-01-10T12:06:35;6.00;;5.00;;;;;;;
60227;SPS30;46091;46.512;6.626;2023-01-10T12:08:46;2.00;;1.00;;;;;;;
60227;SPS30;46091;46.512;6.626;2023-01-10T12:10:54;3.25;;2.25;;;;;;;
60227;SPS30;46091;46.512;6.626;2023-01-10T12:13:06;3.50;;2.50;;;;;;;
60227;SPS30;46091;46.512;6.626;2023-01-10T12:15:20;3.00;;2.00;;;;;;;
60227;SPS30;46091;46.512;6.626;2023-01-10T12:17:26;9.75;;8.75;;;;;;;
60227;SPS30;46091;46.512;6.626;2023-01-10T12:19:34;4.75;;3.75;;;;;;;
60227;SPS30;46091;46.512;6.626;2023-01-10T12:21:37;3.00;;2.00;;;;;;;
60227;SPS30;46091;46.512;6.626;2023-01-10T12:23:42;3.00;;2.00;;;;;;;
60227;SPS30;46091;46.512;6.626;2023-01-10T12:25:49;3.00;;2.00;;;;;;;
60227;SPS30;46091;46.512;6.626;2023-01-10T12:28:13;5.75;;4.75;;;;;;;
60227;SPS30;46091;46.512;6.626;2023-01-10T12:30:22;6.50;;5.50;;;;;;;
60227;SPS30;46091;46.512;6.626;2023-01-10T12:32:37;7.50;;6.50;;;;;;;
60227;SPS30;46091;46.512;6.626;2023-01-10T12:34:48;6.75;;5.75;;;;;;;
60227;SPS30;46091;46.512;6.626;2023-01-10T12:36:57;5.25;;4.25;;;;;;;
60227;SPS30;46091;46.512;6.626;2023-01-10T12:39:10;3.00;;2.00;;;;;;;
60227;SPS30;46091;46.512;6.626;2023-01-10T12:41:18;6.50;;5.50;;;;;;;
60227;SPS30;46091;46.512;6.626;2023-01-10T12:43:43;2.75;;1.75;;;;;;;
60227;SPS30;46091;46.512;6.626;2023-01-10T12:46:08;7.00;;6.00;;;;;;;
60227;SPS30;46091;46.512;6.626;2023-01-10T12:48:39;9.00;;8.00;;;;;;;
60227;SPS30;46091;46.512;6.626;2023-01-10T12:50:50;8.00;;7.00;;;;;;;
60227;SPS30;46091;46.512;6.626;2023-01-10T12:53:04;2.00;;1.00;;;;;;;
60227;SPS30;46091;46.512;6.626;2023-01-10T12:55:13;3.00;;2.00;;;;;;;
60227;SPS30;46091;46.512;6.626;2023-01-10T12:57:21;3.00;;2.00;;;;;;;
60227;SPS30;46091;46.512;6.626;2023-01-10T12:59:28;3.75;;2.75;;;;;;;
60227;SPS30;46091;46.512;6.626;2023-01-10T13:01:39;4.75;;3.75;;;;;;;
60227;SPS30;46091;46.512;6.626;2023-01-10T13:03:44;3.00;;2.00;;;;;;;
60227;SPS30;46091;46.512;6.626;2023-01-10T13:05:52;2.00;;1.00;;;;;;;
60227;SPS30;46091;46.512;6.626;2023-01-10T13:07:59;3.00;;2.00;;;;;;;
60227;SPS30;46091;46.512;6.626;2023-01-10T13:10:08;4.25;;3.25;;;;;;;
60227;SPS30;46091;46.512;6.626;2023-01-10T13:12:16;3.25;;2.25;;;;;;;
60227;SPS30;46091;46.512;6.626;2023-01-10T13:14:26;2.00;;1.00;;;;;;;
60227;SPS30;46091;46.512;6.626;2023-01-10T13:16:35;6.75;;5.75;;;;;;;
60227;SPS30;46091;46.512;6.626;2023-01-10T13:18:57;4.33;;3.33;;;;;;;
60227;SPS30;46091;46.512;6.626;2023-01-10T13:21:04;5.00;;4.00;;;;;;;
60227;SPS30;46091;46.512;6.626;2023-01-10T13:23:24;5.00;;4.00;;;;;;;
60227;SPS30;46091;46.512;6.626;2023-01-10T13:25:32;3.50;;2.50;;;;;;;
60227;SPS30;46091;46.512;6.626;2023-01-10T13:27:40;5.50;;4.50;;;;;;;
60227;SPS30;46091;46.512;6.626;2023-01-10T13:29:44;2.50;;1.50;;;;;;;
60227;SPS30;46091;46.512;6.626;2023-01-10T13:31:51;3.00;;2.00;;;;;;;
60227;SPS30;46091;46.512;6.626;2023-01-10T13:33:59;3.25;;2.25;;;;;;;
60227;SPS30;46091;46.512;6.626;2023-01-10T13:36:09;5.00;;4.00;;;;;;;
60227;SPS30;46091;46.512;6.626;2023-01-10T13:38:16;5.25;;4.25;;;;;;;
60227;SPS30;46091;46.512;6.626;2023-01-10T13:40:22;4.00;;3.00;;;;;;;
60227;SPS30;46091;46.512;6.626;2023-01-10T13:42:29;4.50;;3.50;;;;;;;
60227;SPS30;46091;46.512;6.626;2023-01-10T13:47:30;3.50;;2.50;;;;;;;
60227;SPS30;46091;46.512;6.626;2023-01-10T13:52:48;3.00;;2.00;;;;;;;
60227;SPS30;46091;46.512;6.626;2023-01-10T13:54:55;3.50;;2.50;;;;;;;
60227;SPS30;46091;46.512;6.626;2023-01-10T13:56:58;3.00;;2.00;;;;;;;
60227;SPS30;46091;46.512;6.626;2023-01-10T13:59:02;4.75;;3.75;;;;;;;
60227;SPS30;46091;46.512;6.626;2023-01-10T14:01:25;5.75;;4.75;;;;;;;
60227;SPS30;46091;46.512;6.626;2023-01-10T14:03:48;3.25;;2.25;;;;;;;
60227;SPS30;46091;46.512;6.626;2023-01-10T14:05:54;3.00;;2.00;;;;;;;
60227;SPS30;46091;46.512;6.626;2023-01-10T14:07:58;3.00;;2.00;;;;;;;
60227;SPS30;46091;46.512;6.626;2023-01-10T14:10:03;8.00;;7.00;;;;;;;
60227;SPS30;46091;46.512;6.626;2023-01-10T14:12:14;5.00;;4.00;;;;;;;
60227;SPS30;46091;46.512;6.626;2023-01-10T14:14:21;4.00;;3.00;;;;;;;
60227;SPS30;46091;46.512;6.626;2023-01-10T14:16:31;2.50;;1.50;;;;;;;
60227;SPS30;46091;46.512;6.626;2023-01-10T14:18:37;6.25;;5.25;;;;;;;
60227;SPS30;46091;46.512;6.626;2023-01-10T14:20:42;3.00;;2.00;;;;;;;
60227;SPS30;46091;46.512;6.626;2023-01-10T14:22:56;2.50;;1.50;;;;;;;
60227;SPS30;46091;46.512;6.626;2023-01-10T14:25:14;5.50;;4.50;;;;;;;
60227;SPS30;46091;46.512;6.626;2023-01-10T14:27:19;3.00;;2.00;;;;;;;
60227;SPS30;46091;46.512;6.626;2023-01-10T14:29:24;5.25;;4.25;;;;;;;
60227;SPS30;46091;46.512;6.626;2023-01-10T14:31:31;3.75;;2.75;;;;;;;
60227;SPS30;46091;46.512;6.626;2023-01-10T14:33:40;5.00;;4.00;;;;;;;
60227;SPS30;46091;46.512;6.626;2023-01-10T14:35:45;3.00;;2.00;;;;;;;
60227;SPS30;46091;46.512;6.626;2023-01-10T14:37:52;3.00;;2.00;;;;;;;
60227;SPS30;46091;46.512;6.626;2023-01-10T14:39:59;6.00;;5.00;;;;;;;
60227;SPS30;46091;46.512;6.626;2023-01-10T14:42:04;8.25;;7.25;;;;;;;
60227;SPS30;46091;46.512;6.626;2023-01-10T14:44:12;4.50;;3.50;;;;;;;
60227;SPS30;46091;46.512;6.626;2023-01-10T14:46:19;3.50;;2.50;;;;;;;
60227;SPS30;46091;46.512;6.626;2023-01-10T14:48:26;5.50;;4.50;;;;;;;
60227;SPS30;46091;46.512;6.626;2023-01-10T14:50:31;4.00;;3.00;;;;;;;
60227;SPS30;46091;46.512;6.626;2023-01-10T14:52:35;5.00;;4.00;;;;;;;
60227;SPS30;46091;46.512;6.626;2023-01-10T14:54:39;5.25;;4.25;;;;;;;
60227;SPS30;46091;46.512;6.626;2023-01-10T14:56:44;2.75;;1.75;;;;;;;
60227;SPS30;46091;46.512;6.626;2023-01-10T14:58:49;2.00;;1.00;;;;;;;
60227;SPS30;46091;46.512;6.626;2023-01-10T15:00:52;2.00;;1.00;;;;;;;
60227;SPS30;46091;46.512;6.626;2023-01-10T15:02:56;3.00;;2.00;;;;;;;
60227;SPS30;46091;46.512;6.626;2023-01-10T15:05:05;4.00;;3.00;;;;;;;
60227;SPS30;46091;46.512;6.626;2023-01-10T15:07:11;3.50;;2.50;;;;;;;
60227;SPS30;46091;46.512;6.626;2023-01-10T15:09:17;3.25;;2.25;;;;;;;
60227;SPS30;46091;46.512;6.626;2023-01-10T15:11:20;4.25;;3.25;;;;;;;
60227;SPS30;46091;46.512;6.626;2023-01-10T15:13:25;2.00;;1.00;;;;;;;
60227;SPS30;46091;46.512;6.626;2023-01-10T15:15:32;4.50;;3.50;;;;;;;
60227;SPS30;46091;46.512;6.626;2023-01-10T15:17:38;4.50;;3.50;;;;;;;
60227;SPS30;46091;46.512;6.626;2023-01-10T15:19:42;3.75;;2.75;;;;;;;
60227;SPS30;46091;46.512;6.626;2023-01-10T15:21:46;3.25;;2.25;;;;;;;
60227;SPS30;46091;46.512;6.626;2023-01-10T15:23:50;7.50;;6.50;;;;;;;
60227;SPS30;46091;46.512;6.626;2023-01-10T15:25:53;2.50;;1.50;;;;;;;
60227;SPS30;46091;46.512;6.626;2023-01-10T15:27:59;4.00;;3.00;;;;;;;
60227;SPS30;46091;46.512;6.626;2023-01-10T15:30:07;4.00;;3.00;;;;;;;
60227;SPS30;46091;46.512;6.626;2023-01-10T15:32:15;3.00;;2.00;;;;;;;
60227;SPS30;46091;46.512;6.626;2023-01-10T15:34:25;4.00;;3.00;;;;;;;
60227;SPS30;46091;46.512;6.626;2023-01-10T15:36:31;4.50;;3.50;;;;;;;
60227;SPS30;46091;46.512;6.626;2023-01-10T15:38:35;6.75;;5.75;;;;;;;
60227;SPS30;46091;46.512;6.626;2023-01-10T15:40:43;3.00;;2.00;;;;;;;
60227;SPS30;46091;46.512;6.626;2023-01-10T15:42:46;2.75;;1.75;;;;;;;
60227;SPS30;46091;46.512;6.626;2023-01-10T15:45:01;3.50;;2.50;;;;;;;
60227;SPS30;46091;46.512;6.626;2023-01-10T15:47:31;3.00;;2.00;;;;;;;
60227;SPS30;46091;46.512;6.626;2023-01-10T15:49:38;5.75;;4.75;;;;;;;
60227;SPS30;46091;46.512;6.626;2023-01-10T15:51:41;6.00;;5.00;;;;;;;
60227;SPS30;46091;46.512;6.626;2023-01-10T15:53:50;2.00;;1.00;;;;;;;
60227;SPS30;46091;46.512;6.626;2023-01-10T15:56:07;4.67;;3.67;;;;;;;
60227;SPS30;46091;46.512;6.626;2023-01-10T15:58:17;5.00;;4.00;;;;;;;
60227;SPS30;46091;46.512;6.626;2023-01-10T16:00:25;4.25;;3.25;;;;;;;
60227;SPS30;46091;46.512;6.626;2023-01-10T16:02:30;6.00;;5.00;;;;;;;
60227;SPS30;46091;46.512;6.626;2023-01-10T16:04:34;8.75;;7.75;;;;;;;
60227;SPS30;46091;46.512;6.626;2023-01-10T16:06:38;6.00;;5.00;;;;;;;
60227;SPS30;46091;46.512;6.626;2023-01-10T16:08:46;11.67;;10.67;;;;;;;
60227;SPS30;46091;46.512;6.626;2023-01-10T16:10:53;7.75;;6.75;;;;;;;
60227;SPS30;46091;46.512;6.626;2023-01-10T16:13:09;3.25;;2.25;;;;;;;
60227;SPS30;46091;46.512;6.626;2023-01-10T16:15:34;12.50;;11.50;;;;;;;
60227;SPS30;46091;46.512;6.626;2023-01-10T16:17:39;10.25;;9.25;;;;;;;
60227;SPS30;46091;46.512;6.626;2023-01-10T16:19:42;6.00;;5.00;;;;;;;
60227;SPS30;46091;46.512;6.626;2023-01-10T16:21:46;8.00;;7.00;;;;;;;
60227;SPS30;46091;46.512;6.626;2023-01-10T16:23:51;4.25;;3.25;;;;;;;
60227;SPS30;46091;46.512;6.626;2023-01-10T16:25:55;3.25;;2.25;;;;;;;
60227;SPS30;46091;46.512;6.626;2023-01-10T16:28:00;4.25;;3.25;;;;;;;
60227;SPS30;46091;46.512;6.626;2023-01-10T16:30:04;5.00;;4.00;;;;;;;
60227;SPS30;46091;46.512;6.626;2023-01-10T16:32:13;4.75;;3.75;;;;;;;
60227;SPS30;46091;46.512;6.626;2023-01-10T16:34:16;11.67;;10.67;;;;;;;
60227;SPS30;46091;46.512;6.626;2023-01-10T16:36:19;3.75;;2.75;;;;;;;
60227;SPS30;46091;46.512;6.626;2023-01-10T16:38:24;6.50;;5.50;;;;;;;
60227;SPS30;46091;46.512;6.626;2023-01-10T16:40:32;5.25;;4.25;;;;;;;
60227;SPS30;46091;46.512;6.626;2023-01-10T16:42:38;5.00;;4.00;;;;;;;
60227;SPS30;46091;46.512;6.626;2023-01-10T16:44:59;5.50;;4.50;;;;;;;
60227;SPS30;46091;46.512;6.626;2023-01-10T16:47:03;7.00;;6.00;;;;;;;
60227;SPS30;46091;46.512;6.626;2023-01-10T16:49:09;5.25;;4.25;;;;;;;
60227;SPS30;46091;46.512;6.626;2023-01-10T16:51:13;4.00;;3.00;;;;;;;
60227;SPS30;46091;46.512;6.626;2023-01-10T16:53:20;4.67;;3.67;;;;;;;
60227;SPS30;46091;46.512;6.626;2023-01-10T16:55:25;57.25;;55.25;;;;;;;
60227;SPS30;46091;46.512;6.626;2023-01-10T16:57:32;62.67;;60.67;;;;;;;
60227;SPS30;46091;46.512;6.626;2023-01-10T16:59:37;112.50;;109.50;;;;;;;
60227;SPS30;46091;46.512;6.626;2023-01-10T17:01:40;96.25;;94.25;;;;;;;
60227;SPS30;46091;46.512;6.626;2023-01-10T17:03:46;94.00;;92.00;;;;;;;
60227;SPS30;46091;46.512;6.626;2023-01-10T17:05:51;92.67;;90.67;;;;;;;
60227;SPS30;46091;46.512;6.626;2023-01-10T17:07:53;84.50;;82.50;;;;;;;
60227;SPS30;46091;46.512;6.626;2023-01-10T17:09:56;96.75;;94.75;;;;;;;
60227;SPS30;46091;46.512;6.626;2023-01-10T17:12:00;22.67;;21.33;;;;;;;
60227;SPS30;46091;46.512;6.626;2023-01-10T17:14:07;5.50;;4.50;;;;;;;
60227;SPS30;46091;46.512;6.626;2023-01-10T17:16:13;10.00;;9.00;;;;;;;
60227;SPS30;46091;46.512;6.626;2023-01-10T17:18:20;4.00;;3.00;;;;;;;
60227;SPS30;46091;46.512;6.626;2023-01-10T17:20:25;6.00;;5.00;;;;;;;
60227;SPS30;46091;46.512;6.626;2023-01-10T17:22:29;5.50;;4.50;;;;;;;
60227;SPS30;46091;46.512;6.626;2023-01-10T17:24:32;5.00;;4.00;;;;;;;
60227;SPS30;46091;46.512;6.626;2023-01-10T17:26:34;11.25;;10.25;;;;;;;
60227;SPS30;46091;46.512;6.626;2023-01-10T17:28:37;10.00;;9.00;;;;;;;
60227;SPS30;46091;46.512;6.626;2023-01-10T17:30:42;9.00;;8.00;;;;;;;
60227;SPS30;46091;46.512;6.626;2023-01-10T17:32:44;6.75;;5.75;;;;;;;
60227;SPS30;46091;46.512;6.626;2023-01-10T17:34:47;7.00;;6.00;;;;;;;
60227;SPS30;46091;46.512;6.626;2023-01-10T17:36:50;4.25;;3.25;;;;;;;
60227;SPS30;46091;46.512;6.626;2023-01-10T17:38:55;8.00;;7.00;;;;;;;
60227;SPS30;46091;46.512;6.626;2023-01-10T17:40:59;5.50;;4.50;;;;;;;
60227;SPS30;46091;46.512;6.626;2023-01-10T17:43:04;4.50;;3.50;;;;;;;
60227;SPS30;46091;46.512;6.626;2023-01-10T17:45:07;10.25;;9.25;;;;;;;
60227;SPS30;46091;46.512;6.626;2023-01-10T17:47:10;8.00;;7.00;;;;;;;
60227;SPS30;46091;46.512;6.626;2023-01-10T17:49:13;8.00;;7.00;;;;;;;
60227;SPS30;46091;46.512;6.626;2023-01-10T17:51:15;8.00;;7.00;;;;;;;
60227;SPS30;46091;46.512;6.626;2023-01-10T17:53:18;10.00;;9.00;;;;;;;
60227;SPS30;46091;46.512;6.626;2023-01-10T17:55:22;6.50;;5.50;;;;;;;
60227;SPS30;46091;46.512;6.626;2023-01-10T17:57:25;6.75;;5.75;;;;;;;
60227;SPS30;46091;46.512;6.626;2023-01-10T17:59:28;6.00;;5.00;;;;;;;
60227;SPS30;46091;46.512;6.626;2023-01-10T18:01:31;8.25;;7.25;;;;;;;
60227;SPS30;46091;46.512;6.626;2023-01-10T18:03:34;9.00;;8.00;;;;;;;
60227;SPS30;46091;46.512;6.626;2023-01-10T18:05:36;8.00;;7.00;;;;;;;
60227;SPS30;46091;46.512;6.626;2023-01-10T18:07:40;9.00;;8.00;;;;;;;
60227;SPS30;46091;46.512;6.626;2023-01-10T18:09:42;7.00;;6.00;;;;;;;
60227;SPS30;46091;46.512;6.626;2023-01-10T18:11:47;10.00;;9.00;;;;;;;
60227;SPS30;46091;46.512;6.626;2023-01-10T18:13:49;45.50;;43.50;;;;;;;
60227;SPS30;46091;46.512;6.626;2023-01-10T18:15:52;9.33;;8.33;;;;;;;
60227;SPS30;46091;46.512;6.626;2023-01-10T18:17:55;5.00;;4.00;;;;;;;
60227;SPS30;46091;46.512;6.626;2023-01-10T18:19:58;6.67;;5.67;;;;;;;
60227;SPS30;46091;46.512;6.626;2023-01-10T18:22:01;6.25;;5.25;;;;;;;
60227;SPS30;46091;46.512;6.626;2023-01-10T18:24:26;3.00;;2.00;;;;;;;
60227;SPS30;46091;46.512;6.626;2023-01-10T18:26:29;5.00;;4.00;;;;;;;
60227;SPS30;46091;46.512;6.626;2023-01-10T18:28:35;5.25;;4.25;;;;;;;
60227;SPS30;46091;46.512;6.626;2023-01-10T18:30:42;7.50;;6.50;;;;;;;
60227;SPS30;46091;46.512;6.626;2023-01-10T18:32:45;8.00;;7.00;;;;;;;
60227;SPS30;46091;46.512;6.626;2023-01-10T18:34:48;3.00;;2.00;;;;;;;
60227;SPS30;46091;46.512;6.626;2023-01-10T18:36:51;2.00;;1.00;;;;;;;
60227;SPS30;46091;46.512;6.626;2023-01-10T18:38:55;2.75;;1.75;;;;;;;
60227;SPS30;46091;46.512;6.626;2023-01-10T18:40:58;2.00;;1.00;;;;;;;
60227;SPS30;46091;46.512;6.626;2023-01-10T18:43:01;7.25;;6.25;;;;;;;
60227;SPS30;46091;46.512;6.626;2023-01-10T18:45:06;4.75;;3.75;;;;;;;
60227;SPS30;46091;46.512;6.626;2023-01-10T18:47:10;3.00;;2.00;;;;;;;
60227;SPS30;46091;46.512;6.626;2023-01-10T18:49:13;3.75;;2.75;;;;;;;
60227;SPS30;46091;46.512;6.626;2023-01-10T18:51:17;10.75;;9.75;;;;;;;
60227;SPS30;46091;46.512;6.626;2023-01-10T18:53:20;6.00;;5.00;;;;;;;
60227;SPS30;46091;46.512;6.626;2023-01-10T18:55:23;4.00;;3.00;;;;;;;
60227;SPS30;46091;46.512;6.626;2023-01-10T18:57:26;2.00;;1.00;;;;;;;
60227;SPS30;46091;46.512;6.626;2023-01-10T18:59:29;6.25;;5.25;;;;;;;
60227;SPS30;46091;46.512;6.626;2023-01-10T19:01:34;5.75;;4.75;;;;;;;
60227;SPS30;46091;46.512;6.626;2023-01-10T19:03:36;7.00;;6.00;;;;;;;
60227;SPS30;46091;46.512;6.626;2023-01-10T19:05:39;4.50;;3.50;;;;;;;
60227;SPS30;46091;46.512;6.626;2023-01-10T19:07:42;5.75;;4.75;;;;;;;
60227;SPS30;46091;46.512;6.626;2023-01-10T19:09:45;6.00;;5.00;;;;;;;
60227;SPS30;46091;46.512;6.626;2023-01-10T19:11:48;4.00;;3.00;;;;;;;
60227;SPS30;46091;46.512;6.626;2023-01-10T19:13:51;5.00;;4.00;;;;;;;
60227;SPS30;46091;46.512;6.626;2023-01-10T19:16:05;5.00;;4.00;;;;;;;
60227;SPS30;46091;46.512;6.626;2023-01-10T19:18:10;4.00;;3.00;;;;;;;
60227;SPS30;46091;46.512;6.626;2023-01-10T19:20:13;3.00;;2.00;;;;;;;
60227;SPS30;46091;46.512;6.626;2023-01-10T19:22:15;3.50;;2.50;;;;;;;
60227;SPS30;46091;46.512;6.626;2023-01-10T19:24:20;2.00;;1.00;;;;;;;
60227;SPS30;46091;46.512;6.626;2023-01-10T19:26:25;2.00;;1.00;;;;;;;